Time;durP1;ratioP1;P1;durP2;ratioP2;P2;SDS_P1;SDS_P2;PMS_P1;PMS_P2;Temp;Humidity;BMP_temperature;BMP_pressure;BME280_temperature;BME280_humidity;BME280_pressure;Samples;Min_cycle;Max_cycle;Signal;HPM_P1;HPM_P2
2023/09/09 00:00:46;;;;;;;6.93;6.32;;;23.50;99.90;;;;;;5083462;28;20139;-43
2023/09/09 00:03:14;;;;;;;6.60;6.00;;;23.50;99.90;;;;;;5084251;28;20467;-43
2023/09/09 00:05:40;;;;;;;7.18;6.50;;;23.50;99.90;;;;;;5083838;28;20062;-42
2023/09/09 00:08:06;;;;;;;6.80;6.20;;;23.40;99.90;;;;;;5083115;28;20086;-42
2023/09/09 00:10:40;;;;;;;9.02;6.63;;;23.30;99.90;;;;;;5084541;28;20183;-42
2023/09/09 00:13:06;;;;;;;7.38;6.68;;;23.30;99.90;;;;;;5084411;28;20016;-42
2023/09/09 00:15:33;;;;;;;7.38;6.68;;;23.30;99.90;;;;;;5087550;28;20036;-42
2023/09/09 00:18:00;;;;;;;7.55;6.80;;;23.20;99.90;;;;;;5087418;28;20793;-42
2023/09/09 00:20:36;;;;;;;7.05;6.45;;;23.20;99.90;;;;;;5088227;28;20016;-42
2023/09/09 00:23:12;;;;;;;7.40;6.70;;;23.20;99.90;;;;;;5086945;28;20030;-42
2023/09/09 00:25:40;;;;;;;7.90;7.20;;;23.20;99.90;;;;;;5087556;28;20036;-46
2023/09/09 00:28:09;;;;;;;8.23;7.50;;;23.20;99.90;;;;;;5086960;28;20052;-42
2023/09/09 00:30:35;;;;;;;7.60;6.90;;;23.20;99.90;;;;;;5088151;28;20055;-43
2023/09/09 00:33:01;;;;;;;9.00;7.00;;;23.20;99.90;;;;;;5087316;28;20432;-42
2023/09/09 00:35:27;;;;;;;7.60;6.90;;;23.10;99.90;;;;;;5083680;28;20078;-43
2023/09/09 00:38:02;;;;;;;7.63;6.88;;;23.10;99.90;;;;;;5067400;28;20472;-43
2023/09/09 00:40:28;;;;;;;7.65;6.95;;;23.10;99.90;;;;;;5087010;28;20024;-42
2023/09/09 00:42:53;;;;;;;8.07;6.90;;;23.10;99.90;;;;;;5087601;28;20654;-43
2023/09/09 00:45:19;;;;;;;7.55;6.88;;;23.10;99.90;;;;;;5087168;28;20383;-43
2023/09/09 00:47:45;;;;;;;7.82;7.15;;;23.00;99.90;;;;;;5087428;28;20024;-42
2023/09/09 00:50:13;;;;;;;8.25;7.45;;;23.00;99.90;;;;;;5086460;28;20150;-43
2023/09/09 00:52:40;;;;;;;8.13;7.43;;;23.00;99.90;;;;;;5087633;28;20048;-43
2023/09/09 00:55:10;;;;;;;9.75;7.55;;;23.00;99.90;;;;;;5086659;28;20538;-42
2023/09/09 00:57:36;;;;;;;7.85;7.18;;;23.00;99.90;;;;;;5087490;28;20032;-42
2023/09/09 01:00:09;;;;;;;8.13;7.35;;;23.00;99.90;;;;;;5086546;28;20043;-43
2023/09/09 01:02:39;;;;;;;7.65;6.85;;;23.00;99.90;;;;;;5087627;28;20024;-42
2023/09/09 01:05:06;;;;;;;8.10;7.40;;;23.00;99.90;;;;;;5086344;28;20024;-43
2023/09/09 01:07:43;;;;;;;8.13;7.18;;;22.90;99.90;;;;;;5087654;28;20571;-42
2023/09/09 01:10:09;;;;;;;8.07;7.28;;;22.90;99.90;;;;;;5086626;28;20024;-43
2023/09/09 01:12:37;;;;;;;8.05;7.35;;;22.80;99.90;;;;;;5086868;28;20080;-42
2023/09/09 01:15:05;;;;;;;9.10;8.10;;;22.80;99.90;;;;;;5086367;28;20049;-42
2023/09/09 01:17:31;;;;;;;8.70;7.85;;;22.80;99.90;;;;;;5086744;28;20058;-42
2023/09/09 01:19:58;;;;;;;8.23;7.45;;;22.80;99.90;;;;;;5086469;28;20028;-43
2023/09/09 01:22:26;;;;;;;9.10;8.30;;;22.80;99.90;;;;;;5086443;28;20016;-42
2023/09/09 01:24:52;;;;;;;8.90;8.10;;;22.80;99.90;;;;;;5085755;28;20081;-43
2023/09/09 01:27:17;;;;;;;8.02;7.32;;;22.80;99.90;;;;;;5085851;28;20028;-43
2023/09/09 01:29:43;;;;;;;8.43;7.63;;;22.80;99.90;;;;;;5086925;28;20118;-42
2023/09/09 01:32:08;;;;;;;9.45;8.45;;;22.80;99.90;;;;;;5085552;28;20020;-42
2023/09/09 01:34:34;;;;;;;9.10;8.30;;;22.80;99.90;;;;;;5086696;28;20696;-43
2023/09/09 01:36:59;;;;;;;9.02;8.13;;;22.80;99.90;;;;;;5085618;28;20028;-42
2023/09/09 01:39:25;;;;;;;8.77;7.88;;;22.80;99.90;;;;;;5086012;28;20384;-43
2023/09/09 01:41:54;;;;;;;9.05;8.15;;;22.80;99.90;;;;;;5086286;28;20028;-44
2023/09/09 01:44:20;;;;;;;9.55;8.63;;;22.70;99.90;;;;;;5085597;28;20053;-42
2023/09/09 01:46:45;;;;;;;9.35;8.45;;;22.70;99.90;;;;;;5085504;28;20619;-42
2023/09/09 01:49:11;;;;;;;9.00;8.07;;;22.70;99.90;;;;;;5085689;28;20024;-43
2023/09/09 01:51:37;;;;;;;9.15;8.35;;;22.70;99.90;;;;;;5086080;28;20028;-42
2023/09/09 01:54:02;;;;;;;9.43;8.52;;;22.70;99.90;;;;;;5085282;28;20771;-43
2023/09/09 01:56:28;;;;;;;9.80;8.82;;;22.70;99.90;;;;;;5085767;28;20371;-42
2023/09/09 01:58:53;;;;;;;9.18;8.38;;;22.60;99.90;;;;;;5085283;28;20046;-43
2023/09/09 02:01:19;;;;;;;9.63;8.73;;;22.60;99.90;;;;;;5084599;28;20319;-42
2023/09/09 02:03:44;;;;;;;9.20;8.30;;;22.50;99.90;;;;;;5085645;28;20112;-42
2023/09/09 02:06:10;;;;;;;9.15;8.25;;;22.50;99.90;;;;;;5085388;28;20107;-43
2023/09/09 02:08:35;;;;;;;9.90;9.00;;;22.50;99.90;;;;;;5085155;28;20123;-42
2023/09/09 02:11:01;;;;;;;9.15;8.25;;;22.50;99.90;;;;;;5085483;28;20074;-43
2023/09/09 02:13:27;;;;;;;9.38;8.50;;;22.40;99.90;;;;;;5085392;28;20039;-43
2023/09/09 02:16:03;;;;;;;9.63;8.73;;;22.40;99.90;;;;;;5085329;28;20036;-43
2023/09/09 02:18:28;;;;;;;8.60;7.70;;;22.40;99.90;;;;;;5085573;28;20089;-42
2023/09/09 02:21:06;;;;;;;9.35;8.45;;;22.40;99.90;;;;;;5085660;28;20017;-42
2023/09/09 02:23:32;;;;;;;8.52;7.72;;;22.30;99.90;;;;;;5085369;28;20480;-43
2023/09/09 02:25:58;;;;;;;8.68;7.88;;;22.30;99.90;;;;;;5085203;28;20027;-43
2023/09/09 02:28:24;;;;;;;10.20;8.73;;;22.30;99.90;;;;;;5084288;28;20028;-42
2023/09/09 02:30:50;;;;;;;9.48;8.52;;;22.30;99.90;;;;;;5085671;28;20353;-43
2023/09/09 02:33:15;;;;;;;9.98;9.07;;;22.30;99.90;;;;;;5084649;28;20486;-43
2023/09/09 02:35:44;;;;;;;8.82;8.02;;;22.20;99.90;;;;;;5084929;28;20506;-43
2023/09/09 02:38:10;;;;;;;9.32;8.38;;;22.20;99.90;;;;;;5084497;28;20456;-43
2023/09/09 02:40:36;;;;;;;9.30;8.40;;;22.20;99.90;;;;;;5085338;28;20059;-43
2023/09/09 02:43:08;;;;;;;9.32;8.43;;;22.20;99.90;;;;;;5084045;28;20748;-43
2023/09/09 02:45:33;;;;;;;9.95;8.90;;;22.20;99.90;;;;;;5085426;28;20024;-43
2023/09/09 02:47:59;;;;;;;10.20;9.20;;;22.10;99.90;;;;;;5084999;28;20035;-43
2023/09/09 02:50:24;;;;;;;10.43;9.35;;;22.10;99.90;;;;;;5084659;28;20502;-42
2023/09/09 02:52:50;;;;;;;11.57;10.40;;;22.10;99.90;;;;;;5084578;28;20063;-43
2023/09/09 02:55:19;;;;;;;10.80;9.52;;;22.10;99.90;;;;;;5085058;28;20336;-43
2023/09/09 02:57:50;;;;;;;11.38;10.23;;;22.10;99.90;;;;;;5084211;28;20379;-43
2023/09/09 03:00:19;;;;;;;11.13;10.02;;;22.00;99.90;;;;;;5083410;28;20051;-42
2023/09/09 03:02:45;;;;;;;11.38;10.27;;;22.00;99.90;;;;;;5084915;28;20012;-42
2023/09/09 03:05:16;;;;;;;10.70;9.65;;;22.00;99.90;;;;;;5084478;28;20406;-43
2023/09/09 03:07:44;;;;;;;11.60;9.93;;;22.00;99.90;;;;;;5085551;28;20023;-43
2023/09/09 03:10:10;;;;;;;11.10;10.10;;;22.00;99.90;;;;;;5083846;28;20452;-43
2023/09/09 03:12:35;;;;;;;11.02;9.93;;;21.90;99.90;;;;;;5085193;28;20020;-43
2023/09/09 03:15:05;;;;;;;12.68;10.73;;;21.90;99.90;;;;;;5084617;28;20042;-43
2023/09/09 03:17:31;;;;;;;11.30;10.27;;;21.90;99.90;;;;;;5084346;28;20081;-43
2023/09/09 03:19:57;;;;;;;11.63;10.45;;;21.90;99.90;;;;;;5084935;28;20066;-44
2023/09/09 03:22:26;;;;;;;11.73;10.52;;;21.90;99.90;;;;;;5085105;28;20419;-43
2023/09/09 03:24:51;;;;;;;12.50;11.18;;;21.80;99.90;;;;;;5084720;28;20410;-43
2023/09/09 03:27:17;;;;;;;11.38;10.18;;;21.80;99.90;;;;;;5084547;28;20024;-43
2023/09/09 03:29:42;;;;;;;12.20;11.00;;;21.80;99.90;;;;;;5084110;28;20531;-42
2023/09/09 03:32:08;;;;;;;11.40;10.40;;;21.80;99.90;;;;;;5084085;28;20645;-44
2023/09/09 03:34:33;;;;;;;11.60;10.40;;;21.70;99.90;;;;;;5084729;28;20035;-43
2023/09/09 03:36:59;;;;;;;11.70;10.60;;;21.70;99.90;;;;;;5084839;28;20027;-42
2023/09/09 03:39:25;;;;;;;11.63;10.52;;;21.70;99.90;;;;;;5084115;28;20032;-42
2023/09/09 03:41:50;;;;;;;11.52;10.32;;;21.70;99.90;;;;;;5084329;28;20479;-43
2023/09/09 03:44:16;;;;;;;11.38;10.38;;;21.60;99.90;;;;;;5084363;28;20425;-42
2023/09/09 03:46:41;;;;;;;11.20;10.10;;;21.60;99.90;;;;;;5084715;28;20112;-43
2023/09/09 03:49:07;;;;;;;11.07;10.07;;;21.60;99.90;;;;;;5087369;28;20032;-42
2023/09/09 03:51:32;;;;;;;11.25;10.20;;;21.50;99.90;;;;;;5088159;28;20028;-42
2023/09/09 03:53:58;;;;;;;11.88;10.77;;;21.50;99.90;;;;;;5088159;28;20028;-42
2023/09/09 03:56:24;;;;;;;11.65;10.55;;;21.60;99.90;;;;;;5087714;28;20031;-43
2023/09/09 03:58:50;;;;;;;11.32;10.23;;;21.50;99.90;;;;;;5088307;28;20085;-43
2023/09/09 04:01:21;;;;;;;12.00;10.80;;;21.50;99.90;;;;;;5086853;28;20044;-43
2023/09/09 04:03:47;;;;;;;11.73;10.63;;;21.50;99.90;;;;;;5088027;28;20490;-43
2023/09/09 04:06:22;;;;;;;12.20;11.10;;;21.40;99.90;;;;;;5086989;28;20028;-43
2023/09/09 04:08:50;;;;;;;12.43;11.32;;;21.40;99.90;;;;;;5088399;28;20051;-42
2023/09/09 04:11:15;;;;;;;13.00;11.70;;;21.40;99.90;;;;;;5087454;28;20031;-42
2023/09/09 04:13:41;;;;;;;12.60;11.40;;;21.40;99.90;;;;;;5087868;28;20051;-44
2023/09/09 04:16:09;;;;;;;12.85;11.55;;;21.40;99.90;;;;;;5087769;28;20107;-43
2023/09/09 04:18:35;;;;;;;13.75;12.45;;;21.30;99.90;;;;;;5087875;28;20906;-43
2023/09/09 04:21:00;;;;;;;14.35;12.93;;;21.30;99.90;;;;;;5086735;28;20103;-43
2023/09/09 04:23:26;;;;;;;15.98;13.98;;;21.30;99.90;;;;;;5087643;28;20028;-43
2023/09/09 04:25:51;;;;;;;16.00;13.98;;;21.20;99.90;;;;;;5087951;28;20107;-43
2023/09/09 04:28:17;;;;;;;14.95;13.55;;;21.20;99.90;;;;;;5086807;28;20071;-43
2023/09/09 04:30:42;;;;;;;17.60;15.82;;;21.20;99.90;;;;;;5087518;28;20020;-43
2023/09/09 04:33:12;;;;;;;17.83;16.02;;;21.10;99.90;;;;;;5086626;28;20030;-43
2023/09/09 04:35:39;;;;;;;18.30;16.55;;;21.10;99.90;;;;;;5087947;28;20035;-43
2023/09/09 04:38:06;;;;;;;18.50;16.70;;;21.10;99.90;;;;;;5086199;28;20047;-43
2023/09/09 04:40:32;;;;;;;19.17;17.38;;;21.10;99.90;;;;;;5088305;28;20045;-42
2023/09/09 04:42:57;;;;;;;18.35;16.60;;;21.10;99.90;;;;;;5086587;28;20032;-43
2023/09/09 04:45:23;;;;;;;19.27;17.27;;;21.10;99.90;;;;;;5087229;28;20028;-43
2023/09/09 04:47:50;;;;;;;19.15;17.35;;;21.10;99.90;;;;;;5087374;28;20024;-42
2023/09/09 04:50:20;;;;;;;19.00;17.10;;;21.10;99.90;;;;;;5086412;28;20024;-43
2023/09/09 04:52:47;;;;;;;19.73;17.83;;;21.10;99.90;;;;;;5086676;28;20020;-43
2023/09/09 04:55:13;;;;;;;20.73;17.67;;;21.10;99.90;;;;;;5086741;28;20675;-43
2023/09/09 04:57:40;;;;;;;17.90;16.20;;;21.10;99.90;;;;;;5087453;28;20030;-43
2023/09/09 05:00:07;;;;;;;18.75;16.85;;;21.10;99.90;;;;;;5085493;28;20077;-43
2023/09/09 05:02:33;;;;;;;18.90;17.05;;;21.00;99.90;;;;;;5087372;28;20048;-43
2023/09/09 05:05:03;;;;;;;21.10;16.88;;;21.00;99.90;;;;;;5087235;28;20028;-43
2023/09/09 05:07:34;;;;;;;20.13;17.42;;;20.90;99.90;;;;;;5087040;28;20020;-43
2023/09/09 05:10:00;;;;;;;18.38;16.58;;;20.90;99.90;;;;;;5086755;28;20122;-43
2023/09/09 05:12:28;;;;;;;28.45;15.52;;;20.80;99.90;;;;;;5087199;28;20099;-42
2023/09/09 05:14:54;;;;;;;16.33;14.82;;;20.80;99.90;;;;;;5083370;28;20565;-42
2023/09/09 05:17:19;;;;;;;15.15;13.75;;;20.70;99.90;;;;;;5086397;28;20027;-43
2023/09/09 05:19:45;;;;;;;15.80;14.20;;;20.70;99.90;;;;;;5086876;28;20521;-43
2023/09/09 05:22:10;;;;;;;14.45;13.13;;;20.70;99.90;;;;;;5086685;28;20016;-43
2023/09/09 05:24:36;;;;;;;16.25;14.65;;;20.60;99.90;;;;;;5086216;28;20442;-43
2023/09/09 05:27:02;;;;;;;16.05;14.40;;;20.50;99.90;;;;;;5086430;28;20440;-43
2023/09/09 05:29:27;;;;;;;16.40;14.70;;;20.50;99.90;;;;;;5086092;28;20035;-43
2023/09/09 05:31:53;;;;;;;29.65;14.15;;;20.50;99.90;;;;;;5086072;28;20028;-43
2023/09/09 05:34:18;;;;;;;21.52;14.50;;;20.50;99.90;;;;;;5086012;28;20047;-43
2023/09/09 05:36:44;;;;;;;35.55;14.32;;;20.50;99.90;;;;;;5086777;28;20036;-42
2023/09/09 05:39:09;;;;;;;25.63;12.93;;;20.50;99.90;;;;;;5085344;28;20028;-42
2023/09/09 05:41:35;;;;;;;23.52;12.38;;;20.50;99.90;;;;;;5086811;28;20023;-42
2023/09/09 05:44:00;;;;;;;23.33;12.65;;;20.40;99.90;;;;;;5085459;28;20024;-43
2023/09/09 05:46:29;;;;;;;12.93;11.50;;;20.40;99.90;;;;;;5085905;28;20024;-42
2023/09/09 05:48:54;;;;;;;22.15;13.50;;;20.30;99.90;;;;;;5086183;28;20032;-42
2023/09/09 05:51:20;;;;;;;16.58;14.85;;;20.30;99.90;;;;;;5086236;28;20573;-42
2023/09/09 05:53:47;;;;;;;16.65;15.18;;;20.30;99.90;;;;;;5085791;28;20781;-42
2023/09/09 05:56:13;;;;;;;16.33;14.63;;;20.40;99.90;;;;;;5084919;28;20063;-42
2023/09/09 05:58:39;;;;;;;15.40;14.05;;;20.50;99.90;;;;;;5085520;28;20146;-42
2023/09/09 06:01:05;;;;;;;22.67;13.63;;;20.50;99.90;;;;;;5084653;28;20055;-42
2023/09/09 06:03:32;;;;;;;14.93;13.52;;;20.50;99.90;;;;;;5086345;28;20073;-43
2023/09/09 06:06:01;;;;;;;26.77;14.27;;;20.40;99.90;;;;;;5085370;28;20024;-43
2023/09/09 06:08:29;;;;;;;25.00;14.90;;;20.50;99.90;;;;;;5065311;28;20033;-42
2023/09/09 06:10:55;;;;;;;31.02;14.00;;;20.50;99.90;;;;;;5080588;28;20028;-42
2023/09/09 06:13:20;;;;;;;32.25;12.25;;;20.50;99.90;;;;;;5084887;28;20074;-42
2023/09/09 06:15:46;;;;;;;21.10;10.32;;;20.50;99.90;;;;;;5085651;28;20487;-42
2023/09/09 06:18:12;;;;;;;13.57;10.70;;;20.40;99.90;;;;;;5085563;28;20036;-42
2023/09/09 06:20:37;;;;;;;13.85;12.45;;;20.30;99.90;;;;;;5085228;28;20024;-42
2023/09/09 06:23:03;;;;;;;16.92;12.45;;;20.30;99.90;;;;;;5085550;28;20073;-43
2023/09/09 06:25:29;;;;;;;15.18;13.77;;;20.30;99.90;;;;;;5085726;28;20027;-42
2023/09/09 06:27:57;;;;;;;16.33;13.13;;;20.40;99.90;;;;;;5084863;28;20051;-43
2023/09/09 06:30:23;;;;;;;14.52;13.13;;;20.40;99.90;;;;;;5084412;28;20104;-43
2023/09/09 06:32:48;;;;;;;13.00;11.75;;;20.50;99.90;;;;;;5085146;28;20024;-42
2023/09/09 06:35:14;;;;;;;13.90;12.40;;;20.40;99.90;;;;;;5084282;28;20035;-42
2023/09/09 06:37:39;;;;;;;22.15;12.73;;;20.50;99.90;;;;;;5085169;28;20765;-42
2023/09/09 06:40:05;;;;;;;15.30;13.90;;;20.50;99.90;;;;;;5085153;28;20032;-42
2023/09/09 06:42:34;;;;;;;14.65;13.20;;;20.50;99.90;;;;;;5084907;28;20024;-42
2023/09/09 06:45:00;;;;;;;12.90;11.80;;;20.50;99.90;;;;;;5084472;28;20102;-42
2023/09/09 06:47:26;;;;;;;15.40;13.90;;;20.60;99.90;;;;;;5085475;28;20036;-42
2023/09/09 06:49:51;;;;;;;18.35;14.43;;;20.60;99.90;;;;;;5084741;28;20043;-42
2023/09/09 06:52:17;;;;;;;17.50;13.88;;;20.70;99.90;;;;;;5084319;28;20571;-43
2023/09/09 06:54:43;;;;;;;16.13;14.63;;;20.70;99.90;;;;;;5085568;28;20039;-43
2023/09/09 06:57:09;;;;;;;16.35;14.57;;;20.80;99.90;;;;;;5084267;28;20027;-43
2023/09/09 06:59:38;;;;;;;14.70;13.30;;;20.90;99.90;;;;;;5084473;28;20036;-43
2023/09/09 07:02:12;;;;;;;14.02;12.63;;;21.00;99.90;;;;;;5083642;28;20131;-42
2023/09/09 07:04:41;;;;;;;16.15;14.45;;;21.00;99.90;;;;;;5085494;28;20028;-43
2023/09/09 07:07:06;;;;;;;16.58;14.82;;;21.00;99.90;;;;;;5084083;28;20131;-43
2023/09/09 07:09:33;;;;;;;15.25;13.70;;;21.00;99.90;;;;;;5084488;28;20028;-42
2023/09/09 07:11:59;;;;;;;15.48;13.98;;;21.10;99.90;;;;;;5084535;28;20031;-43
2023/09/09 07:14:24;;;;;;;17.17;15.40;;;21.10;99.90;;;;;;5084966;28;20438;-42
2023/09/09 07:16:50;;;;;;;15.55;14.00;;;21.10;99.90;;;;;;5084336;28;20026;-43
2023/09/09 07:19:15;;;;;;;16.17;14.55;;;21.10;99.90;;;;;;5084401;28;20953;-43
2023/09/09 07:21:41;;;;;;;16.08;14.43;;;21.10;99.90;;;;;;5084764;28;20573;-43
2023/09/09 07:24:07;;;;;;;15.43;13.85;;;21.10;99.90;;;;;;5083268;28;20044;-42
2023/09/09 07:26:32;;;;;;;15.48;13.52;;;21.10;99.90;;;;;;5084712;28;20551;-43
2023/09/09 07:28:58;;;;;;;20.00;17.65;;;21.20;99.90;;;;;;5084558;28;20129;-43
2023/09/09 07:31:23;;;;;;;21.80;18.15;;;21.20;99.90;;;;;;5084240;28;20032;-43
2023/09/09 07:33:52;;;;;;;22.83;17.67;;;21.20;99.90;;;;;;5084222;28;20035;-43
2023/09/09 07:36:18;;;;;;;20.95;16.60;;;21.30;99.90;;;;;;5083980;28;20024;-42
2023/09/09 07:38:43;;;;;;;20.70;17.17;;;21.30;99.90;;;;;;5084336;28;20036;-42
2023/09/09 07:41:09;;;;;;;20.23;17.58;;;21.30;99.90;;;;;;5083705;28;20028;-42
2023/09/09 07:43:35;;;;;;;21.10;18.20;;;21.40;99.90;;;;;;5084560;28;20107;-42
2023/09/09 07:46:00;;;;;;;22.13;17.10;;;21.40;99.90;;;;;;5083393;28;20020;-42
2023/09/09 07:48:26;;;;;;;22.85;18.23;;;21.40;99.90;;;;;;5083891;28;20118;-42
2023/09/09 07:50:54;;;;;;;22.92;17.55;;;21.50;99.90;;;;;;5084414;28;20146;-42
2023/09/09 07:53:20;;;;;;;23.88;18.95;;;21.50;99.90;;;;;;5083595;28;20109;-42
2023/09/09 07:55:50;;;;;;;22.00;19.65;;;21.50;99.90;;;;;;5084479;28;20433;-43
2023/09/09 07:58:17;;;;;;;23.33;20.92;;;21.50;99.90;;;;;;5083662;28;20036;-42
2023/09/09 08:00:44;;;;;;;20.15;18.05;;;21.50;99.90;;;;;;5085139;28;20052;-42
2023/09/09 08:03:13;;;;;;;18.23;16.42;;;21.50;99.90;;;;;;5083952;28;20036;-43
2023/09/09 08:05:39;;;;;;;17.88;15.98;;;21.50;99.90;;;;;;5080591;28;20084;-42
2023/09/09 08:08:08;;;;;;;19.42;17.45;;;21.60;99.90;;;;;;5084334;28;20054;-42
2023/09/09 08:10:34;;;;;;;18.60;16.58;;;21.50;99.90;;;;;;5083583;28;20780;-43
2023/09/09 08:13:01;;;;;;;17.52;15.82;;;21.50;99.90;;;;;;5083628;28;20067;-43
2023/09/09 08:15:27;;;;;;;17.27;15.55;;;21.50;99.90;;;;;;5084020;28;20639;-43
2023/09/09 08:17:52;;;;;;;19.10;17.13;;;21.60;99.90;;;;;;5085033;28;20028;-43
2023/09/09 08:20:23;;;;;;;16.75;15.13;;;21.60;99.90;;;;;;5083354;28;20028;-43
2023/09/09 08:22:49;;;;;;;17.38;15.68;;;21.70;99.90;;;;;;5084072;28;20505;-43
2023/09/09 08:25:15;;;;;;;20.60;18.40;;;21.80;99.90;;;;;;5083934;28;20127;-42
2023/09/09 08:27:40;;;;;;;18.63;16.63;;;21.80;99.90;;;;;;5083860;28;20020;-42
2023/09/09 08:30:06;;;;;;;20.55;18.40;;;21.90;99.90;;;;;;5082677;28;20428;-42
2023/09/09 08:32:32;;;;;;;20.27;18.23;;;21.90;99.90;;;;;;5084348;28;20107;-42
2023/09/09 08:34:59;;;;;;;22.20;18.65;;;21.90;99.90;;;;;;5085803;28;20414;-43
2023/09/09 08:37:25;;;;;;;21.30;19.05;;;21.90;99.90;;;;;;5087238;28;20105;-42
2023/09/09 08:39:52;;;;;;;21.65;19.25;;;21.90;99.90;;;;;;5087938;28;20035;-42
2023/09/09 08:42:47;;;;;;;23.23;20.00;;;21.90;99.90;;;;;;5086514;28;20016;-42
2023/09/09 08:45:37;;;;;;;22.10;19.88;;;22.00;99.90;;;;;;5086071;28;20051;-42
2023/09/09 08:48:07;;;;;;;23.52;21.05;;;21.90;99.90;;;;;;5086917;28;20121;-42
2023/09/09 08:50:39;;;;;;;25.20;21.40;;;21.90;99.90;;;;;;5087840;28;20024;-42
2023/09/09 08:53:06;;;;;;;25.75;22.02;;;22.00;99.90;;;;;;5087657;28;20028;-43
2023/09/09 08:55:37;;;;;;;23.80;21.25;;;22.00;99.90;;;;;;5086905;28;20456;-42
2023/09/09 08:58:06;;;;;;;25.95;21.48;;;22.10;99.90;;;;;;5087138;28;20036;-42
2023/09/09 09:00:35;;;;;;;24.77;21.25;;;22.10;99.90;;;;;;5087365;28;20568;-42
2023/09/09 09:03:02;;;;;;;27.70;23.40;;;22.20;99.90;;;;;;5075940;28;20031;-43
2023/09/09 09:05:31;;;;;;;27.45;23.40;;;22.20;99.90;;;;;;5087692;28;20085;-43
2023/09/09 09:07:57;;;;;;;25.33;22.10;;;22.30;99.90;;;;;;5087383;28;20379;-42
2023/09/09 09:10:23;;;;;;;28.50;22.85;;;22.40;99.90;;;;;;5086249;28;20365;-42
2023/09/09 09:12:49;;;;;;;29.40;24.13;;;22.40;99.90;;;;;;5087404;28;20059;-42
2023/09/09 09:15:17;;;;;;;25.70;21.17;;;22.50;99.90;;;;;;5086906;28;20056;-42
2023/09/09 09:17:44;;;;;;;27.25;23.25;;;22.60;99.90;;;;;;5086178;28;20032;-43
2023/09/09 09:20:30;;;;;;;29.67;25.52;;;22.60;99.90;;;;;;5086369;28;20032;-42
2023/09/09 09:23:02;;;;;;;24.45;21.80;;;22.70;99.90;;;;;;5086008;28;20070;-43
2023/09/09 09:25:34;;;;;;;25.15;21.80;;;22.70;99.90;;;;;;5086903;28;20077;-42
2023/09/09 09:28:02;;;;;;;26.02;21.95;;;22.80;99.90;;;;;;5086494;28;20085;-43
2023/09/09 09:30:30;;;;;;;30.23;25.73;;;22.90;99.90;;;;;;5086833;28;20047;-43
2023/09/09 09:32:56;;;;;;;27.88;23.70;;;22.90;99.90;;;;;;5086373;28;20036;-42
2023/09/09 09:35:23;;;;;;;23.00;19.42;;;23.00;99.90;;;;;;5086474;28;20056;-43
2023/09/09 09:37:53;;;;;;;21.05;18.83;;;23.10;99.90;;;;;;5085589;28;20032;-43
2023/09/09 09:40:19;;;;;;;21.88;18.63;;;23.10;99.90;;;;;;5085660;28;20028;-43
2023/09/09 09:42:44;;;;;;;21.95;19.00;;;23.20;99.90;;;;;;5086492;28;20487;-43
2023/09/09 09:45:13;;;;;;;25.17;21.88;;;23.30;99.90;;;;;;5084589;28;20097;-43
2023/09/09 09:47:50;;;;;;;25.15;22.40;;;23.30;99.90;;;;;;5085369;28;20023;-43
2023/09/09 09:50:28;;;;;;;18.02;15.98;;;23.40;99.90;;;;;;5085894;28;20030;-42
2023/09/09 09:53:00;;;;;;;23.35;19.08;;;23.50;99.90;;;;;;5085714;28;20024;-45
2023/09/09 09:55:28;;;;;;;19.42;17.40;;;23.60;99.90;;;;;;5086245;28;20028;-43
2023/09/09 09:57:56;;;;;;;18.90;16.95;;;23.70;99.90;;;;;;5086204;28;20016;-44
2023/09/09 10:00:23;;;;;;;20.35;17.80;;;23.80;99.90;;;;;;5085238;28;20090;-43
2023/09/09 10:02:52;;;;;;;21.45;17.95;;;23.90;99.90;;;;;;5086118;28;20024;-43
2023/09/09 10:05:21;;;;;;;20.50;16.63;;;23.90;99.90;;;;;;5085014;28;20494;-43
2023/09/09 10:07:53;;;;;;;19.58;17.48;;;24.00;99.90;;;;;;5085741;28;20028;-43
2023/09/09 10:10:23;;;;;;;18.20;15.55;;;24.10;99.90;;;;;;5085432;28;20133;-43
2023/09/09 10:12:58;;;;;;;18.85;16.85;;;24.20;99.90;;;;;;5085168;28;20024;-43
2023/09/09 10:15:25;;;;;;;15.77;14.20;;;24.20;99.90;;;;;;5074291;28;20016;-42
2023/09/09 10:17:52;;;;;;;18.35;15.75;;;24.30;99.90;;;;;;5085578;28;20038;-42
2023/09/09 10:20:18;;;;;;;17.52;15.30;;;24.40;99.90;;;;;;5084700;28;20023;-43
2023/09/09 10:22:49;;;;;;;16.50;14.32;;;24.50;99.90;;;;;;5085621;28;20016;-42
2023/09/09 10:25:18;;;;;;;15.73;14.05;;;24.60;99.90;;;;;;5085185;28;20024;-43
2023/09/09 10:27:51;;;;;;;15.77;14.10;;;24.60;99.90;;;;;;5084891;28;20503;-42
2023/09/09 10:30:23;;;;;;;20.83;18.60;;;24.70;99.90;;;;;;5084567;28;20073;-42
2023/09/09 10:32:49;;;;;;;15.90;14.02;;;24.80;99.90;;;;;;5085777;28;20028;-42
2023/09/09 10:35:17;;;;;;;15.80;14.15;;;24.90;99.90;;;;;;5084171;28;20073;-42
2023/09/09 10:37:43;;;;;;;15.15;13.63;;;24.90;99.90;;;;;;5085757;28;20040;-43
2023/09/09 10:40:10;;;;;;;13.60;12.25;;;25.00;99.90;;;;;;5084285;28;20562;-42
2023/09/09 10:42:40;;;;;;;11.73;10.60;;;25.00;99.90;;;;;;5065396;28;20091;-43
2023/09/09 10:45:29;;;;;;;10.45;9.45;;;25.10;99.90;;;;;;5079540;28;20055;-43
2023/09/09 10:48:01;;;;;;;9.52;8.73;;;25.00;99.90;;;;;;5065102;28;20036;-43
2023/09/09 10:50:47;;;;;;;11.20;10.10;;;25.00;99.90;;;;;;5081507;28;20096;-43
2023/09/09 10:53:28;;;;;;;12.10;11.00;;;25.10;99.90;;;;;;5071589;28;20032;-42
2023/09/09 10:55:58;;;;;;;10.98;9.90;;;25.10;99.90;;;;;;5084677;28;20604;-43
2023/09/09 10:58:43;;;;;;;8.65;7.85;;;25.20;99.90;;;;;;5084130;28;20032;-43
2023/09/09 11:01:20;;;;;;;7.15;6.55;;;25.20;99.90;;;;;;5083730;28;20036;-43
2023/09/09 11:03:51;;;;;;;7.10;6.50;;;25.20;99.90;;;;;;5085204;28;20426;-43
2023/09/09 11:06:24;;;;;;;6.00;5.50;;;25.20;99.90;;;;;;5084075;28;20085;-43
2023/09/09 11:08:58;;;;;;;8.98;8.10;;;25.20;99.90;;;;;;5085191;28;20509;-43
2023/09/09 11:11:33;;;;;;;7.18;6.47;;;25.30;99.90;;;;;;5084344;28;20028;-43
2023/09/09 11:14:03;;;;;;;6.22;5.70;;;25.40;99.90;;;;;;5084213;28;20028;-43
2023/09/09 11:16:37;;;;;;;6.63;6.00;;;25.40;99.90;;;;;;5081286;28;20031;-43
2023/09/09 11:19:05;;;;;;;6.90;6.25;;;25.50;99.90;;;;;;5083944;28;20040;-43
2023/09/09 11:21:37;;;;;;;7.32;6.63;;;25.50;99.90;;;;;;5084909;28;20031;-43
2023/09/09 11:24:04;;;;;;;6.47;5.97;;;25.60;99.90;;;;;;5064012;28;20028;-43
2023/09/09 11:26:30;;;;;;;6.50;6.00;;;25.70;99.90;;;;;;5079178;28;20490;-43
2023/09/09 11:28:56;;;;;;;6.97;6.35;;;25.70;99.90;;;;;;5085299;28;20032;-43
2023/09/09 11:31:23;;;;;;;7.05;6.45;;;25.70;99.90;;;;;;5084343;28;20470;-43
2023/09/09 11:33:48;;;;;;;7.43;6.72;;;25.80;99.90;;;;;;5084534;28;20028;-43
2023/09/09 11:36:16;;;;;;;5.80;5.28;;;25.80;99.90;;;;;;5083446;28;20065;-43
2023/09/09 11:38:43;;;;;;;6.13;5.30;;;25.90;99.90;;;;;;5084677;28;20046;-43
2023/09/09 11:41:09;;;;;;;6.95;6.25;;;26.00;99.90;;;;;;5084416;28;20016;-43
2023/09/09 11:43:34;;;;;;;6.18;5.53;;;26.10;99.90;;;;;;5084524;28;20036;-43
2023/09/09 11:46:00;;;;;;;6.05;5.57;;;26.10;99.90;;;;;;5083686;28;20013;-43
2023/09/09 11:48:26;;;;;;;5.20;4.78;;;26.10;99.90;;;;;;5084397;28;20036;-43
2023/09/09 11:50:52;;;;;;;5.03;4.53;;;26.10;99.90;;;;;;5083854;28;20016;-43
2023/09/09 11:53:22;;;;;;;5.18;4.70;;;26.10;99.90;;;;;;5083451;28;20153;-43
2023/09/09 11:55:53;;;;;;;5.55;5.05;;;26.20;99.90;;;;;;5084877;28;20020;-43
2023/09/09 11:58:19;;;;;;;4.25;3.78;;;26.10;99.90;;;;;;5082720;28;20696;-43
2023/09/09 12:00:44;;;;;;;4.50;4.10;;;26.20;99.90;;;;;;5083924;28;20741;-43
2023/09/09 12:03:18;;;;;;;3.90;3.60;;;26.20;99.90;;;;;;5084017;28;20035;-43
2023/09/09 12:05:44;;;;;;;4.20;3.80;;;26.20;99.90;;;;;;5083883;28;20119;-43
2023/09/09 12:08:09;;;;;;;3.40;3.10;;;26.20;99.90;;;;;;5083176;28;20633;-44
2023/09/09 12:10:40;;;;;;;3.70;3.40;;;26.20;99.90;;;;;;5088346;28;20024;-43
2023/09/09 12:13:06;;;;;;;4.03;3.47;;;26.30;99.90;;;;;;5086825;28;20032;-43
2023/09/09 12:15:31;;;;;;;4.50;4.10;;;26.30;99.90;;;;;;5088133;28;20024;-44
2023/09/09 12:17:57;;;;;;;4.18;3.85;;;26.40;99.90;;;;;;5087972;28;20119;-43
2023/09/09 12:20:22;;;;;;;5.03;3.75;;;26.40;99.90;;;;;;5087049;28;20024;-43
2023/09/09 12:22:52;;;;;;;3.85;3.55;;;26.50;99.90;;;;;;5087482;28;20031;-43
2023/09/09 12:25:37;;;;;;;4.00;3.65;;;26.40;99.90;;;;;;5073876;28;20064;-43
2023/09/09 12:28:03;;;;;;;4.22;3.30;;;26.40;99.90;;;;;;5077648;28;20372;-43
2023/09/09 12:30:31;;;;;;;3.85;3.55;;;26.40;99.90;;;;;;5087813;28;20039;-43
2023/09/09 12:33:12;;;;;;;3.88;3.50;;;26.50;99.90;;;;;;5086718;28;20606;-43
2023/09/09 12:35:43;;;;;;;4.60;4.20;;;26.50;99.90;;;;;;5087608;28;20028;-42